createdAt,value
2023-03-29T00:01:01.423Z,74
2023-03-29T00:21:01.184Z,71
2023-03-29T00:40:57.763Z,71
2023-03-29T01:00:58.187Z,67
2023-03-29T01:20:58.324Z,68
2023-03-29T01:40:58.427Z,66
2023-03-29T02:00:58.928Z,64
2023-03-29T02:20:57.233Z,68
2023-03-29T02:41:10.170Z,66
2023-03-29T03:00:59.651Z,68
2023-03-29T03:20:58.122Z,67
2023-03-29T03:40:58.786Z,66
2023-03-29T04:01:25.593Z,65
2023-03-29T04:20:59.118Z,67
2023-03-29T04:40:59.708Z,66
2023-03-29T05:01:02.036Z,67
2023-03-29T05:21:05.482Z,70
2023-03-29T05:41:29.625Z,70
2023-03-29T06:01:27.774Z,71
2023-03-29T06:21:30.103Z,71
2023-03-29T06:41:33.208Z,70
2023-03-29T07:01:34.915Z,71
2023-03-29T07:21:26.095Z,71
2023-03-29T07:41:26.822Z,64
2023-03-29T08:01:36.883Z,66
2023-03-29T08:21:33.995Z,67
2023-03-29T08:41:27.652Z,69
2023-03-29T09:01:25.876Z,67
2023-03-29T09:21:26.794Z,67
2023-03-29T09:41:33.845Z,67
2023-03-29T10:01:36.806Z,70
2023-03-29T10:21:32.274Z,71
2023-03-29T10:41:31.718Z,70
2023-03-29T11:01:27.606Z,61
2023-03-29T11:21:43.614Z,56
2023-03-29T11:41:29.445Z,54
2023-03-29T12:01:31.760Z,52
2023-03-29T12:21:26.732Z,53
2023-03-29T12:41:33.055Z,53
2023-03-29T13:01:32.581Z,52
2023-03-29T13:21:28.348Z,52
2023-03-29T13:41:27.518Z,52
2023-03-29T14:01:35.160Z,52
2023-03-29T14:21:30.051Z,51
2023-03-29T14:41:35.164Z,51
2023-03-29T15:01:26.591Z,52
2023-03-29T15:21:25.279Z,49
2023-03-29T15:41:29.289Z,56
2023-03-29T16:01:33.198Z,58
2023-03-29T16:21:34.692Z,68
2023-03-29T16:41:24.791Z,68
2023-03-29T17:01:35.436Z,65
2023-03-29T17:21:32.393Z,64
2023-03-29T17:41:31.932Z,68
2023-03-29T18:00:58.122Z,69
2023-03-29T18:20:57.189Z,62
2023-03-29T18:40:58.437Z,73
2023-03-29T19:00:58.929Z,73
2023-03-29T19:20:57.877Z,74
2023-03-29T19:41:01.427Z,72
2023-03-29T20:01:04.887Z,77
2023-03-29T20:20:57.702Z,77
2023-03-29T20:40:57.595Z,80
2023-03-29T21:00:58.339Z,76
2023-03-29T21:20:57.709Z,76
2023-03-29T21:40:59.105Z,77
2023-03-29T22:01:06.893Z,77
2023-03-29T22:20:58.503Z,78
2023-03-29T22:40:58.296Z,78
2023-03-29T23:00:57.672Z,77
2023-03-29T23:21:06.189Z,77
2023-03-29T23:41:10.499Z,82
